createdAt,value
2023-02-06T00:01:56.227Z,85.25
2023-02-06T00:04:25.990Z,85.08
2023-02-06T00:06:55.751Z,85.14
2023-02-06T00:09:25.512Z,84.62
2023-02-06T00:11:55.321Z,85.64
2023-02-06T00:14:25.228Z,85.22
2023-02-06T00:16:54.998Z,85.41
2023-02-06T00:19:24.803Z,85.20
2023-02-06T00:21:56.467Z,85.56
2023-02-06T00:24:26.553Z,85.75
2023-02-06T00:26:57.012Z,85.75
2023-02-06T00:29:26.855Z,85.26
2023-02-06T00:31:57.004Z,84.78
2023-02-06T00:34:26.626Z,85.44
2023-02-06T00:36:56.677Z,85.44
2023-02-06T00:39:27.562Z,84.98
2023-02-06T00:41:57.331Z,85.85
2023-02-06T00:44:26.828Z,85.77
2023-02-06T00:46:58.388Z,85.93
2023-02-06T00:49:28.110Z,85.35
2023-02-06T00:51:57.592Z,85.22
2023-02-06T00:54:27.234Z,85.23
2023-02-06T00:56:57.047Z,85.41
2023-02-06T00:59:26.888Z,86.41
2023-02-06T01:01:56.838Z,85.73
2023-02-06T01:04:26.363Z,85.57
2023-02-06T01:06:57.611Z,85.57
2023-02-06T01:09:27.116Z,85.63
2023-02-06T01:11:58.840Z,84.75
2023-02-06T01:14:28.647Z,84.77
2023-02-06T01:16:58.482Z,84.99
2023-02-06T01:19:28.274Z,85.87
2023-02-06T01:21:58.920Z,86.02
2023-02-06T01:24:28.736Z,85.92
2023-02-06T01:26:58.577Z,85.20
2023-02-06T01:29:28.435Z,85.30
2023-02-06T01:31:58.189Z,86.18
2023-02-06T01:34:27.940Z,85.40
2023-02-06T01:36:57.732Z,85.39
2023-02-06T01:39:28.165Z,85.40
2023-02-06T01:41:59.747Z,85.51
2023-02-06T01:44:31.091Z,85.31
2023-02-06T01:47:01.358Z,84.99
2023-02-06T01:49:43.064Z,85.20
2023-02-06T01:52:25.043Z,85.47
2023-02-06T01:54:57.857Z,85.84
2023-02-06T01:57:28.301Z,85.84
2023-02-06T02:00:04.138Z,85.84
2023-02-06T02:02:38.005Z,84.97
2023-02-06T02:05:10.689Z,84.97
2023-02-06T02:07:46.265Z,85.65
2023-02-06T02:10:16.808Z,85.24
2023-02-06T02:12:46.800Z,85.16
2023-02-06T02:15:16.608Z,85.28
2023-02-06T02:17:52.456Z,84.86
2023-02-06T02:20:45.435Z,85.54
2023-02-06T02:23:24.126Z,85.10
2023-02-06T02:26:19.033Z,84.80
2023-02-06T02:29:21.232Z,83.85
2023-02-06T02:32:17.670Z,84.28
2023-02-06T02:35:05.274Z,84.65
2023-02-06T02:37:48.149Z,85.41
2023-02-06T02:40:29.810Z,85.19
2023-02-06T02:43:08.191Z,85.35
2023-02-06T02:45:47.754Z,83.83
2023-02-06T02:48:23.176Z,83.83
2023-02-06T02:50:55.089Z,84.21
2023-02-06T02:53:24.996Z,84.39
2023-02-06T02:55:56.148Z,83.27
2023-02-06T02:58:29.103Z,84.01
2023-02-06T03:01:02.232Z,84.48
2023-02-06T03:03:34.990Z,85.25
2023-02-06T03:06:35.885Z,84.89
2023-02-06T03:09:37.513Z,85.00
2023-02-06T03:12:14.378Z,84.79
2023-02-06T03:14:53.015Z,85.03
2023-02-06T03:17:25.887Z,85.18
2023-02-06T03:19:58.377Z,85.18
2023-02-06T03:22:30.397Z,84.29
2023-02-06T03:25:02.391Z,84.71
2023-02-06T03:27:33.482Z,84.84
2023-02-06T03:30:07.167Z,86.04
2023-02-06T03:32:39.964Z,86.04
2023-02-06T03:35:12.822Z,85.09
2023-02-06T03:37:42.731Z,85.10
2023-02-06T03:40:13.414Z,85.22
2023-02-06T03:42:46.203Z,84.83
2023-02-06T03:45:31.051Z,85.22
2023-02-06T03:48:09.591Z,84.58
2023-02-06T03:50:42.411Z,84.38
2023-02-06T03:53:13.308Z,85.12
2023-02-06T03:55:45.815Z,86.07
2023-02-06T03:58:15.809Z,86.26
2023-02-06T04:00:47.379Z,85.91
2023-02-06T04:03:19.939Z,85.21
2023-02-06T04:05:50.306Z,84.97
2023-02-06T04:08:20.119Z,84.97
2023-02-06T04:10:50.366Z,84.23
2023-02-06T04:13:20.121Z,84.23
2023-02-06T04:15:49.932Z,85.35
2023-02-06T04:18:19.793Z,85.47
2023-02-06T04:20:51.657Z,85.43
2023-02-06T04:23:21.490Z,85.35
2023-02-06T04:25:51.253Z,86.18
2023-02-06T04:28:22.531Z,86.18
2023-02-06T04:30:52.751Z,86.60
2023-02-06T04:33:22.545Z,85.57
2023-02-06T04:35:52.497Z,85.19
2023-02-06T04:38:21.960Z,85.02
2023-02-06T04:40:51.782Z,84.33
2023-02-06T04:43:21.328Z,84.51
2023-02-06T04:45:51.106Z,84.95
2023-02-06T04:48:20.922Z,83.00
2023-02-06T04:50:53.802Z,82.66
2023-02-06T04:53:23.630Z,84.79
2023-02-06T04:55:55.032Z,85.54
2023-02-06T04:58:24.563Z,84.99
2023-02-06T05:00:54.368Z,84.20
2023-02-06T05:03:25.284Z,84.11
2023-02-06T05:05:55.043Z,83.69
2023-02-06T05:08:25.171Z,83.00
2023-02-06T05:10:55.684Z,83.98
2023-02-06T05:13:25.841Z,85.57
2023-02-06T05:15:57.376Z,85.22
2023-02-06T05:18:27.317Z,85.03
2023-02-06T05:20:57.065Z,84.88
2023-02-06T05:23:26.994Z,84.90
2023-02-06T05:25:56.892Z,84.62
2023-02-06T05:28:27.363Z,84.62
2023-02-06T05:31:02.763Z,84.28
2023-02-06T05:33:34.603Z,84.69
2023-02-06T05:36:08.169Z,84.27
2023-02-06T05:38:37.999Z,83.81
2023-02-06T05:41:10.405Z,84.75
2023-02-06T05:43:40.272Z,83.97
2023-02-06T05:46:11.450Z,83.54
2023-02-06T05:48:41.766Z,83.14
2023-02-06T05:51:11.561Z,83.11
2023-02-06T05:53:41.308Z,84.53
2023-02-06T05:56:11.811Z,85.46
2023-02-06T05:58:41.657Z,85.25
2023-02-06T06:01:13.333Z,84.95
2023-02-06T06:03:43.201Z,84.70
2023-02-06T06:06:13.291Z,84.11
2023-02-06T06:08:43.061Z,83.36
2023-02-06T06:11:12.514Z,83.36
2023-02-06T06:13:42.301Z,84.68
2023-02-06T06:16:12.047Z,84.37
2023-02-06T06:18:41.953Z,84.61
2023-02-06T06:21:11.719Z,84.32
2023-02-06T06:23:41.254Z,83.79
2023-02-06T06:26:11.583Z,84.36
2023-02-06T06:28:41.634Z,84.51
2023-02-06T06:31:12.406Z,83.56
2023-02-06T06:33:42.488Z,83.13
2023-02-06T06:36:14.503Z,84.53
2023-02-06T06:38:44.419Z,85.71
2023-02-06T06:41:14.252Z,85.23
2023-02-06T06:43:44.095Z,85.01
2023-02-06T06:46:15.209Z,84.67
2023-02-06T06:48:44.982Z,85.02
2023-02-06T06:51:14.530Z,84.57
2023-02-06T06:53:44.278Z,84.69
2023-02-06T06:56:15.648Z,84.95
2023-02-06T06:58:45.420Z,85.73
2023-02-06T07:01:15.346Z,85.71
2023-02-06T07:03:47.016Z,85.68
2023-02-06T07:06:19.598Z,86.34
2023-02-06T07:08:49.153Z,85.57
2023-02-06T07:11:19.551Z,84.40
2023-02-06T07:13:49.690Z,85.63
2023-02-06T07:16:19.383Z,86.06
2023-02-06T07:18:49.157Z,85.88
2023-02-06T07:21:19.925Z,85.89
2023-02-06T07:23:49.722Z,86.12
2023-02-06T07:26:19.314Z,86.05
2023-02-06T07:28:49.779Z,85.73
2023-02-06T07:31:19.613Z,86.49
2023-02-06T07:33:49.504Z,85.97
2023-02-06T07:36:19.335Z,85.34
2023-02-06T07:38:49.089Z,85.96
2023-02-06T07:41:19.204Z,86.77
2023-02-06T07:43:48.963Z,87.01
2023-02-06T07:46:18.765Z,86.23
2023-02-06T07:48:48.608Z,86.52
2023-02-06T07:51:18.527Z,87.13
2023-02-06T07:53:49.619Z,86.70
2023-02-06T07:56:22.660Z,86.26
2023-02-06T07:58:53.985Z,86.11
2023-02-06T08:01:24.593Z,86.86
2023-02-06T08:03:55.668Z,86.83
2023-02-06T08:06:26.312Z,86.83
2023-02-06T08:08:57.119Z,86.44
2023-02-06T08:11:29.011Z,86.19
2023-02-06T08:13:59.095Z,86.42
2023-02-06T08:16:28.990Z,86.09
2023-02-06T08:18:58.787Z,85.12
2023-02-06T08:21:28.944Z,85.15
2023-02-06T08:24:01.745Z,85.58
2023-02-06T08:26:33.311Z,85.14
2023-02-06T08:29:05.614Z,85.16
2023-02-06T08:31:38.795Z,85.30
2023-02-06T08:34:14.064Z,84.69
2023-02-06T08:36:44.178Z,84.76
2023-02-06T08:39:15.366Z,84.68
2023-02-06T08:41:45.686Z,84.61
2023-02-06T08:44:17.582Z,84.53
2023-02-06T08:46:52.348Z,84.74
2023-02-06T08:49:22.453Z,85.22
2023-02-06T08:51:52.247Z,86.00
2023-02-06T08:54:24.298Z,85.07
2023-02-06T08:56:55.851Z,86.54
2023-02-06T08:59:25.646Z,85.40
2023-02-06T09:01:55.557Z,86.04
2023-02-06T09:04:25.343Z,86.25
2023-02-06T09:06:55.163Z,85.45
2023-02-06T09:09:25.100Z,85.61
2023-02-06T09:11:56.213Z,85.51
2023-02-06T09:14:26.009Z,85.68
2023-02-06T09:16:57.577Z,85.47
2023-02-06T09:19:27.654Z,85.06
2023-02-06T09:21:57.566Z,84.37
2023-02-06T09:24:28.764Z,85.00
2023-02-06T09:27:00.506Z,85.41
2023-02-06T09:29:32.893Z,85.66
2023-02-06T09:32:02.798Z,87.42
2023-02-06T09:34:32.563Z,85.88
2023-02-06T09:37:06.422Z,86.05
2023-02-06T09:39:36.252Z,86.86
2023-02-06T09:42:13.577Z,85.76
2023-02-06T09:44:53.416Z,85.71
2023-02-06T09:47:32.090Z,84.71
2023-02-06T09:50:13.799Z,84.76
2023-02-06T09:52:47.672Z,85.48
2023-02-06T09:55:23.450Z,83.91
2023-02-06T09:57:53.721Z,84.64
2023-02-06T10:00:37.837Z,83.39
2023-02-06T10:03:16.419Z,83.39
2023-02-06T10:06:09.441Z,82.72
2023-02-06T10:08:42.282Z,82.38
2023-02-06T10:11:23.841Z,82.55
2023-02-06T10:14:01.977Z,81.51
2023-02-06T10:16:49.776Z,81.54
2023-02-06T10:19:25.376Z,80.04
2023-02-06T10:22:00.624Z,81.26
2023-02-06T10:24:33.390Z,80.20
2023-02-06T10:27:06.434Z,79.17
2023-02-06T10:29:36.938Z,80.22
2023-02-06T10:32:32.288Z,80.22
2023-02-06T10:35:27.252Z,79.47
2023-02-06T10:38:15.146Z,79.47
2023-02-06T10:40:56.453Z,78.02
2023-02-06T10:43:41.127Z,77.54
2023-02-06T10:46:30.355Z,76.91
2023-02-06T10:49:14.813Z,76.24
2023-02-06T10:51:49.002Z,75.97
2023-02-06T10:54:27.123Z,75.46
2023-02-06T10:56:59.413Z,75.07
2023-02-06T10:59:37.985Z,73.22
2023-02-06T11:02:12.976Z,74.75
2023-02-06T11:04:45.762Z,73.67
2023-02-06T11:07:27.946Z,73.69
2023-02-06T11:09:58.049Z,74.49
2023-02-06T11:12:51.117Z,73.94
2023-02-06T11:15:41.596Z,73.71
2023-02-06T11:18:15.142Z,71.96
2023-02-06T11:20:47.098Z,70.95
2023-02-06T11:23:25.659Z,72.31
2023-02-06T11:26:16.400Z,72.31
2023-02-06T11:28:58.306Z,70.49
2023-02-06T11:31:45.894Z,70.12
2023-02-06T11:34:27.704Z,69.53
2023-02-06T11:37:05.629Z,70.72
2023-02-06T11:39:40.065Z,69.69
2023-02-06T11:42:23.637Z,69.28
2023-02-06T11:44:53.750Z,70.12
2023-02-06T11:47:38.227Z,70.26
2023-02-06T11:50:18.347Z,69.38
2023-02-06T11:52:48.764Z,68.17
2023-02-06T11:55:30.176Z,68.17
2023-02-06T11:58:06.144Z,68.10
2023-02-06T12:00:37.926Z,66.62
2023-02-06T12:03:27.167Z,66.04
2023-02-06T12:06:00.392Z,67.09
2023-02-06T12:08:36.387Z,68.41
2023-02-06T12:11:09.963Z,66.52
2023-02-06T12:13:43.430Z,68.16
2023-02-06T12:16:15.579Z,65.71
2023-02-06T12:18:48.610Z,65.56
2023-02-06T12:21:27.367Z,64.59
2023-02-06T12:24:02.973Z,61.04
2023-02-06T12:26:37.371Z,61.92
2023-02-06T12:29:25.297Z,64.10
2023-02-06T12:32:05.381Z,62.63
2023-02-06T12:34:51.739Z,63.56
2023-02-06T12:37:26.285Z,63.82
2023-02-06T12:39:56.139Z,62.20
2023-02-06T12:42:40.332Z,62.99
2023-02-06T12:45:31.631Z,62.31
2023-02-06T12:48:04.420Z,62.37
2023-02-06T12:50:37.013Z,62.51
2023-02-06T12:53:21.438Z,62.18
2023-02-06T12:56:00.783Z,62.18
2023-02-06T12:58:36.230Z,61.04
2023-02-06T13:01:29.389Z,62.13
2023-02-06T13:03:55.753Z,62.13
2023-02-06T13:06:31.452Z,61.53
2023-02-06T13:09:04.577Z,61.48
2023-02-06T13:11:40.685Z,62.50
2023-02-06T13:14:30.039Z,62.20
2023-02-06T13:17:09.705Z,62.07
2023-02-06T13:19:42.537Z,62.50
2023-02-06T13:22:16.811Z,61.83
2023-02-06T13:24:48.518Z,61.83
2023-02-06T13:27:19.779Z,62.22
2023-02-06T13:29:51.616Z,63.17
2023-02-06T13:32:27.042Z,62.28
2023-02-06T13:35:08.450Z,60.65
2023-02-06T13:37:47.873Z,60.58
2023-02-06T13:40:30.995Z,59.85
2023-02-06T13:43:13.868Z,59.59
2023-02-06T13:45:51.849Z,56.67
2023-02-06T13:48:52.607Z,57.95
2023-02-06T13:51:41.741Z,58.66
2023-02-06T13:54:42.704Z,59.17
2023-02-06T13:57:21.575Z,59.40
2023-02-06T13:59:57.296Z,59.80
2023-02-06T14:02:39.129Z,59.73
2023-02-06T14:05:18.218Z,60.22
2023-02-06T14:08:10.120Z,60.52
2023-02-06T14:11:17.727Z,61.18
2023-02-06T14:13:53.156Z,60.94
2023-02-06T14:16:34.573Z,61.75
2023-02-06T14:19:07.210Z,60.91
2023-02-06T14:21:40.068Z,60.38
2023-02-06T14:24:30.067Z,59.64
2023-02-06T14:27:05.581Z,60.62
2023-02-06T14:29:49.779Z,59.75
2023-02-06T14:32:34.126Z,60.05
2023-02-06T14:35:33.692Z,58.98
2023-02-06T14:38:31.405Z,59.97
2023-02-06T14:41:02.987Z,60.19
2023-02-06T14:43:35.993Z,60.35
2023-02-06T14:46:09.987Z,60.63
2023-02-06T14:48:42.951Z,59.78
2023-02-06T14:51:24.770Z,59.24
2023-02-06T14:53:58.166Z,59.78
2023-02-06T14:56:33.468Z,60.16
2023-02-06T14:59:16.015Z,59.41
2023-02-06T15:01:49.001Z,59.74
2023-02-06T15:04:22.077Z,59.82
2023-02-06T15:06:57.295Z,59.42
2023-02-06T15:09:36.318Z,60.17
2023-02-06T15:12:24.297Z,61.15
2023-02-06T15:14:56.960Z,60.16
2023-02-06T15:17:27.274Z,60.16
2023-02-06T15:19:56.995Z,59.45
2023-02-06T15:22:31.681Z,57.99
2023-02-06T15:25:10.138Z,57.67
2023-02-06T15:27:40.500Z,58.07
2023-02-06T15:30:20.056Z,59.03
2023-02-06T15:32:52.890Z,59.18
2023-02-06T15:35:28.274Z,59.78
2023-02-06T15:37:59.309Z,60.79
2023-02-06T15:40:32.354Z,59.81
2023-02-06T15:43:04.255Z,59.81
2023-02-06T15:45:39.085Z,60.62
2023-02-06T15:48:26.344Z,60.62
2023-02-06T15:51:10.887Z,60.83
2023-02-06T15:53:42.789Z,60.83
2023-02-06T15:56:24.486Z,60.67
2023-02-06T15:59:00.254Z,60.83
2023-02-06T16:01:32.566Z,60.37
2023-02-06T16:04:08.469Z,59.63
2023-02-06T16:06:38.213Z,59.04
2023-02-06T16:09:08.419Z,59.34
2023-02-06T16:11:51.325Z,59.74
2023-02-06T16:14:32.859Z,59.69
2023-02-06T16:17:17.289Z,59.72
2023-02-06T16:19:57.391Z,59.67
2023-02-06T16:22:33.058Z,60.08
2023-02-06T16:25:24.687Z,61.01
2023-02-06T16:27:54.740Z,60.18
2023-02-06T16:30:35.464Z,61.24
2023-02-06T16:33:14.765Z,60.99
2023-02-06T16:35:44.815Z,60.97
2023-02-06T16:38:14.680Z,61.48
2023-02-06T16:40:44.602Z,62.43
2023-02-06T16:43:14.427Z,63.58
2023-02-06T16:45:44.211Z,64.52
2023-02-06T16:48:17.272Z,64.54
2023-02-06T16:50:49.284Z,64.54
2023-02-06T16:53:22.147Z,65.95
2023-02-06T16:55:52.564Z,67.68
2023-02-06T16:58:24.689Z,67.38
2023-02-06T17:00:54.541Z,68.50
2023-02-06T17:03:25.320Z,68.76
2023-02-06T17:05:55.064Z,68.71
2023-02-06T17:08:25.785Z,69.07
2023-02-06T17:10:55.556Z,68.95
2023-02-06T17:13:25.794Z,70.64
2023-02-06T17:15:55.626Z,70.42
2023-02-06T17:18:25.666Z,71.08
2023-02-06T17:20:56.468Z,71.00
2023-02-06T17:23:26.212Z,71.83
2023-02-06T17:25:55.975Z,71.84
2023-02-06T17:28:25.730Z,71.83
2023-02-06T17:30:55.598Z,72.05
2023-02-06T17:33:25.410Z,71.80
2023-02-06T17:35:55.290Z,71.74
2023-02-06T17:38:25.035Z,72.13
2023-02-06T17:40:55.664Z,72.80
2023-02-06T17:43:25.543Z,72.60
2023-02-06T17:45:55.295Z,72.59
2023-02-06T17:48:25.009Z,72.95
2023-02-06T17:50:55.181Z,73.10
2023-02-06T17:53:25.237Z,73.35
2023-02-06T17:55:55.017Z,71.57
2023-02-06T17:58:24.826Z,72.32
2023-02-06T18:00:54.625Z,73.64
2023-02-06T18:03:24.604Z,73.94
2023-02-06T18:06:01.691Z,73.48
2023-02-06T18:08:31.632Z,73.19
2023-02-06T18:11:03.038Z,74.47
2023-02-06T18:13:32.862Z,73.91
2023-02-06T18:16:02.456Z,74.21
2023-02-06T18:18:32.376Z,74.02
2023-02-06T18:21:02.415Z,73.14
2023-02-06T18:23:32.551Z,74.07
2023-02-06T18:26:04.146Z,74.76
2023-02-06T18:28:34.854Z,75.31
2023-02-06T18:31:05.331Z,74.93
2023-02-06T18:33:35.998Z,74.19
2023-02-06T18:36:07.164Z,75.04
2023-02-06T18:38:37.136Z,74.16
2023-02-06T18:41:09.518Z,74.75
2023-02-06T18:43:39.478Z,75.31
2023-02-06T18:46:11.160Z,75.31
2023-02-06T18:48:41.265Z,74.78
2023-02-06T18:51:11.082Z,75.65
2023-02-06T18:53:40.892Z,75.28
2023-02-06T18:56:12.661Z,76.55
2023-02-06T18:58:42.479Z,76.40
2023-02-06T19:01:21.057Z,76.40
2023-02-06T19:03:52.554Z,76.03
2023-02-06T19:06:32.108Z,75.36
2023-02-06T19:09:02.511Z,75.39
2023-02-06T19:11:32.245Z,75.72
2023-02-06T19:14:02.018Z,75.72
2023-02-06T19:16:32.647Z,75.13
2023-02-06T19:19:02.558Z,75.56
2023-02-06T19:21:32.381Z,75.58
2023-02-06T19:24:02.558Z,76.09
2023-02-06T19:26:33.715Z,75.73
2023-02-06T19:29:03.665Z,76.30
2023-02-06T19:31:37.950Z,76.77
2023-02-06T19:34:09.224Z,76.60
2023-02-06T19:36:38.984Z,76.34
2023-02-06T19:39:11.163Z,76.64
2023-02-06T19:41:40.949Z,76.81
2023-02-06T19:44:14.501Z,76.26
2023-02-06T19:46:44.303Z,76.17
2023-02-06T19:49:14.248Z,76.59
2023-02-06T19:51:46.088Z,76.92
2023-02-06T19:54:16.219Z,76.59
2023-02-06T19:56:48.743Z,76.48
2023-02-06T19:59:24.215Z,76.75
2023-02-06T20:01:56.401Z,77.60
2023-02-06T20:04:29.699Z,78.14
2023-02-06T20:06:59.793Z,78.23
2023-02-06T20:09:30.661Z,79.37
2023-02-06T20:12:00.958Z,78.91
2023-02-06T20:14:30.605Z,78.69
2023-02-06T20:17:00.555Z,78.83
2023-02-06T20:19:31.179Z,79.51
2023-02-06T20:22:04.026Z,78.87
2023-02-06T20:24:34.674Z,79.17
2023-02-06T20:27:07.540Z,79.05
2023-02-06T20:29:39.789Z,79.12
2023-02-06T20:32:11.052Z,79.24
2023-02-06T20:34:41.150Z,79.26
2023-02-06T20:37:11.061Z,79.26
2023-02-06T20:39:41.203Z,78.51
2023-02-06T20:42:11.957Z,78.51
2023-02-06T20:44:42.008Z,78.79
2023-02-06T20:47:11.992Z,78.42
2023-02-06T20:49:41.978Z,78.55
2023-02-06T20:52:11.873Z,78.44
2023-02-06T20:54:41.990Z,78.40
2023-02-06T20:57:11.740Z,78.58
2023-02-06T20:59:41.607Z,79.25
2023-02-06T21:02:13.839Z,79.39
2023-02-06T21:04:43.717Z,79.09
2023-02-06T21:07:13.727Z,78.96
2023-02-06T21:09:44.188Z,80.08
2023-02-06T21:12:15.387Z,80.04
2023-02-06T21:14:45.625Z,79.79
2023-02-06T21:17:15.216Z,79.36
2023-02-06T21:19:45.306Z,78.91
2023-02-06T21:22:15.212Z,79.51
2023-02-06T21:24:45.060Z,79.86
2023-02-06T21:27:14.837Z,79.86
2023-02-06T21:29:44.889Z,79.02
2023-02-06T21:32:16.920Z,78.95
2023-02-06T21:34:46.326Z,78.44
2023-02-06T21:37:16.103Z,78.77
2023-02-06T21:39:46.029Z,79.49
2023-02-06T21:42:15.865Z,78.76
2023-02-06T21:44:45.696Z,78.63
2023-02-06T21:47:15.504Z,79.56
2023-02-06T21:49:46.525Z,79.22
2023-02-06T21:52:16.879Z,79.37
2023-02-06T21:54:46.685Z,80.07
2023-02-06T21:57:16.519Z,80.07
2023-02-06T21:59:46.568Z,80.15
2023-02-06T22:02:16.073Z,80.35
2023-02-06T22:04:46.354Z,80.37
2023-02-06T22:07:16.384Z,80.70
2023-02-06T22:09:46.092Z,80.88
2023-02-06T22:12:15.772Z,81.46
2023-02-06T22:14:45.605Z,81.46
2023-02-06T22:17:15.363Z,80.97
2023-02-06T22:19:45.174Z,81.04
2023-02-06T22:22:15.274Z,80.94
2023-02-06T22:24:45.414Z,80.48
2023-02-06T22:27:15.247Z,80.03
2023-02-06T22:29:45.410Z,79.44
2023-02-06T22:32:16.798Z,79.58
2023-02-06T22:34:46.616Z,79.85
2023-02-06T22:37:16.493Z,81.32
2023-02-06T22:39:46.341Z,80.93
2023-02-06T22:42:17.076Z,80.07
2023-02-06T22:44:47.191Z,80.44
2023-02-06T22:47:17.411Z,80.30
2023-02-06T22:49:47.313Z,80.30
2023-02-06T22:52:34.922Z,80.36
2023-02-06T22:55:05.698Z,80.31
2023-02-06T22:57:37.187Z,79.81
2023-02-06T23:00:10.847Z,79.52
2023-02-06T23:02:40.713Z,79.37
2023-02-06T23:05:10.640Z,80.12
2023-02-06T23:07:40.714Z,79.43
2023-02-06T23:10:12.434Z,80.01
2023-02-06T23:12:42.549Z,79.48
2023-02-06T23:15:12.334Z,79.79
2023-02-06T23:17:42.086Z,80.79
2023-02-06T23:20:13.314Z,79.98
2023-02-06T23:22:43.066Z,80.10
2023-02-06T23:25:12.507Z,79.90
2023-02-06T23:27:42.314Z,79.79
2023-02-06T23:30:14.260Z,79.79
2023-02-06T23:32:44.117Z,79.39
2023-02-06T23:35:13.624Z,79.52
2023-02-06T23:37:43.409Z,79.07
2023-02-06T23:40:13.111Z,80.66
2023-02-06T23:42:42.880Z,80.18
2023-02-06T23:45:12.720Z,79.96
2023-02-06T23:47:42.744Z,79.46
2023-02-06T23:50:12.399Z,80.67
2023-02-06T23:52:42.699Z,80.79
2023-02-06T23:55:13.833Z,80.01
2023-02-06T23:57:44.216Z,79.81
